sensor_id;sensor_type;location;lat;lon;timestamp;P1;durP1;ratioP1;P2;durP2;ratioP2
25327;SDS011;13279;51.300;12.394;2024-03-02T00:01:41;56.80;;;27.20;;
25327;SDS011;13279;51.300;12.394;2024-03-02T00:04:09;59.60;;;27.33;;
25327;SDS011;13279;51.300;12.394;2024-03-02T00:06:36;62.03;;;26.73;;
25327;SDS011;13279;51.300;12.394;2024-03-02T00:09:04;61.37;;;28.47;;
25327;SDS011;13279;51.300;12.394;2024-03-02T00:11:34;63.50;;;27.67;;
25327;SDS011;13279;51.300;12.394;2024-03-02T00:14:02;64.03;;;28.13;;
25327;SDS011;13279;51.300;12.394;2024-03-02T00:16:30;60.23;;;27.33;;
25327;SDS011;13279;51.300;12.394;2024-03-02T00:19:02;64.23;;;27.13;;
25327;SDS011;13279;51.300;12.394;2024-03-02T00:21:31;61.63;;;27.90;;
25327;SDS011;13279;51.300;12.394;2024-03-02T00:23:59;54.77;;;26.73;;
25327;SDS011;13279;51.300;12.394;2024-03-02T00:26:28;57.47;;;26.83;;
25327;SDS011;13279;51.300;12.394;2024-03-02T00:28:56;53.37;;;25.90;;
25327;SDS011;13279;51.300;12.394;2024-03-02T00:31:23;62.33;;;26.40;;
25327;SDS011;13279;51.300;12.394;2024-03-02T00:33:51;63.30;;;27.80;;
25327;SDS011;13279;51.300;12.394;2024-03-02T00:36:24;56.93;;;26.53;;
25327;SDS011;13279;51.300;12.394;2024-03-02T00:38:53;58.00;;;26.40;;
25327;SDS011;13279;51.300;12.394;2024-03-02T00:41:22;64.20;;;26.33;;
25327;SDS011;13279;51.300;12.394;2024-03-02T00:43:57;65.30;;;25.67;;
25327;SDS011;13279;51.300;12.394;2024-03-02T00:46:26;67.63;;;26.50;;
25327;SDS011;13279;51.300;12.394;2024-03-02T00:48:57;61.37;;;25.30;;
25327;SDS011;13279;51.300;12.394;2024-03-02T00:51:27;56.53;;;27.03;;
25327;SDS011;13279;51.300;12.394;2024-03-02T00:53:57;56.03;;;26.20;;
25327;SDS011;13279;51.300;12.394;2024-03-02T00:56:26;62.03;;;27.63;;
25327;SDS011;13279;51.300;12.394;2024-03-02T00:58:54;58.03;;;26.23;;
25327;SDS011;13279;51.300;12.394;2024-03-02T01:01:21;56.50;;;26.00;;
25327;SDS011;13279;51.300;12.394;2024-03-02T01:03:48;54.70;;;24.60;;
25327;SDS011;13279;51.300;12.394;2024-03-02T01:06:16;55.57;;;24.73;;
25327;SDS011;13279;51.300;12.394;2024-03-02T01:08:45;54.93;;;26.10;;
25327;SDS011;13279;51.300;12.394;2024-03-02T01:11:16;52.70;;;25.67;;
25327;SDS011;13279;51.300;12.394;2024-03-02T01:13:44;58.07;;;25.23;;
25327;SDS011;13279;51.300;12.394;2024-03-02T01:16:13;62.97;;;27.13;;
25327;SDS011;13279;51.300;12.394;2024-03-02T01:18:41;59.03;;;24.37;;
25327;SDS011;13279;51.300;12.394;2024-03-02T01:21:09;57.50;;;25.47;;
25327;SDS011;13279;51.300;12.394;2024-03-02T01:23:36;52.67;;;24.93;;
25327;SDS011;13279;51.300;12.394;2024-03-02T01:26:05;55.90;;;25.67;;
25327;SDS011;13279;51.300;12.394;2024-03-02T01:28:32;55.47;;;24.53;;
25327;SDS011;13279;51.300;12.394;2024-03-02T01:31:00;52.77;;;23.80;;
25327;SDS011;13279;51.300;12.394;2024-03-02T01:33:27;50.23;;;23.43;;
25327;SDS011;13279;51.300;12.394;2024-03-02T01:35:57;53.60;;;24.30;;
25327;SDS011;13279;51.300;12.394;2024-03-02T01:38:24;52.67;;;24.80;;
25327;SDS011;13279;51.300;12.394;2024-03-02T01:40:52;47.83;;;23.67;;
25327;SDS011;13279;51.300;12.394;2024-03-02T01:43:21;46.90;;;23.63;;
25327;SDS011;13279;51.300;12.394;2024-03-02T01:45:49;54.43;;;23.27;;
25327;SDS011;13279;51.300;12.394;2024-03-02T01:48:16;51.73;;;23.00;;
25327;SDS011;13279;51.300;12.394;2024-03-02T01:50:44;53.03;;;23.17;;
25327;SDS011;13279;51.300;12.394;2024-03-02T01:53:12;50.80;;;22.87;;
25327;SDS011;13279;51.300;12.394;2024-03-02T01:55:39;49.50;;;23.30;;
25327;SDS011;13279;51.300;12.394;2024-03-02T01:58:07;58.47;;;23.63;;
25327;SDS011;13279;51.300;12.394;2024-03-02T02:00:36;52.53;;;23.50;;
25327;SDS011;13279;51.300;12.394;2024-03-02T02:03:03;46.37;;;23.13;;
25327;SDS011;13279;51.300;12.394;2024-03-02T02:05:32;54.13;;;22.33;;
25327;SDS011;13279;51.300;12.394;2024-03-02T02:08:00;49.47;;;22.20;;
25327;SDS011;13279;51.300;12.394;2024-03-02T02:10:28;49.40;;;22.27;;
25327;SDS011;13279;51.300;12.394;2024-03-02T02:12:55;49.63;;;22.13;;
25327;SDS011;13279;51.300;12.394;2024-03-02T02:15:24;49.00;;;22.07;;
25327;SDS011;13279;51.300;12.394;2024-03-02T02:17:53;52.60;;;21.73;;
25327;SDS011;13279;51.300;12.394;2024-03-02T02:20:21;47.10;;;21.23;;
25327;SDS011;13279;51.300;12.394;2024-03-02T02:22:57;49.73;;;21.67;;
25327;SDS011;13279;51.300;12.394;2024-03-02T02:25:24;42.77;;;20.00;;
25327;SDS011;13279;51.300;12.394;2024-03-02T02:27:52;48.73;;;21.67;;
25327;SDS011;13279;51.300;12.394;2024-03-02T02:30:21;47.43;;;22.47;;
25327;SDS011;13279;51.300;12.394;2024-03-02T02:32:50;48.00;;;21.93;;
25327;SDS011;13279;51.300;12.394;2024-03-02T02:35:17;44.73;;;21.03;;
25327;SDS011;13279;51.300;12.394;2024-03-02T02:37:43;44.13;;;20.53;;
25327;SDS011;13279;51.300;12.394;2024-03-02T02:40:13;49.50;;;21.77;;
25327;SDS011;13279;51.300;12.394;2024-03-02T02:42:41;45.60;;;20.23;;
25327;SDS011;13279;51.300;12.394;2024-03-02T02:45:08;42.83;;;20.70;;
25327;SDS011;13279;51.300;12.394;2024-03-02T02:47:36;47.23;;;20.77;;
25327;SDS011;13279;51.300;12.394;2024-03-02T02:50:04;49.80;;;22.13;;
25327;SDS011;13279;51.300;12.394;2024-03-02T02:52:33;50.33;;;22.00;;
25327;SDS011;13279;51.300;12.394;2024-03-02T02:55:03;45.77;;;20.40;;
25327;SDS011;13279;51.300;12.394;2024-03-02T02:57:32;44.60;;;20.33;;
25327;SDS011;13279;51.300;12.394;2024-03-02T03:00:04;50.07;;;20.30;;
25327;SDS011;13279;51.300;12.394;2024-03-02T03:02:36;41.27;;;21.03;;
25327;SDS011;13279;51.300;12.394;2024-03-02T03:05:05;42.17;;;19.43;;
25327;SDS011;13279;51.300;12.394;2024-03-02T03:07:33;42.37;;;20.43;;
25327;SDS011;13279;51.300;12.394;2024-03-02T03:10:02;42.43;;;19.90;;
25327;SDS011;13279;51.300;12.394;2024-03-02T03:12:33;44.70;;;21.67;;
25327;SDS011;13279;51.300;12.394;2024-03-02T03:15:01;44.13;;;19.93;;
25327;SDS011;13279;51.300;12.394;2024-03-02T03:17:30;51.10;;;18.63;;
25327;SDS011;13279;51.300;12.394;2024-03-02T03:19:57;47.17;;;20.13;;
25327;SDS011;13279;51.300;12.394;2024-03-02T03:22:24;41.77;;;19.43;;
25327;SDS011;13279;51.300;12.394;2024-03-02T03:24:52;50.90;;;20.53;;
25327;SDS011;13279;51.300;12.394;2024-03-02T03:27:19;47.40;;;21.23;;
25327;SDS011;13279;51.300;12.394;2024-03-02T03:29:48;42.47;;;20.43;;
25327;SDS011;13279;51.300;12.394;2024-03-02T03:32:16;44.73;;;19.27;;
25327;SDS011;13279;51.300;12.394;2024-03-02T03:34:43;39.53;;;18.37;;
25327;SDS011;13279;51.300;12.394;2024-03-02T03:37:11;46.07;;;18.87;;
25327;SDS011;13279;51.300;12.394;2024-03-02T03:39:38;40.80;;;18.77;;
25327;SDS011;13279;51.300;12.394;2024-03-02T03:42:06;35.37;;;18.07;;
25327;SDS011;13279;51.300;12.394;2024-03-02T03:44:33;49.77;;;18.77;;
25327;SDS011;13279;51.300;12.394;2024-03-02T03:47:02;39.20;;;17.40;;
25327;SDS011;13279;51.300;12.394;2024-03-02T03:49:29;40.83;;;18.80;;
25327;SDS011;13279;51.300;12.394;2024-03-02T03:51:57;42.80;;;19.67;;
25327;SDS011;13279;51.300;12.394;2024-03-02T03:54:24;37.47;;;17.70;;
25327;SDS011;13279;51.300;12.394;2024-03-02T03:56:52;41.57;;;19.00;;
25327;SDS011;13279;51.300;12.394;2024-03-02T03:59:19;43.23;;;19.97;;
25327;SDS011;13279;51.300;12.394;2024-03-02T04:01:46;41.87;;;18.77;;
25327;SDS011;13279;51.300;12.394;2024-03-02T04:04:15;41.50;;;19.87;;
25327;SDS011;13279;51.300;12.394;2024-03-02T04:06:42;47.57;;;19.57;;
25327;SDS011;13279;51.300;12.394;2024-03-02T04:09:10;47.33;;;20.67;;
25327;SDS011;13279;51.300;12.394;2024-03-02T04:11:37;39.67;;;19.43;;
25327;SDS011;13279;51.300;12.394;2024-03-02T04:14:04;37.13;;;19.57;;
25327;SDS011;13279;51.300;12.394;2024-03-02T04:16:32;42.30;;;19.00;;
25327;SDS011;13279;51.300;12.394;2024-03-02T04:18:59;45.77;;;18.83;;
25327;SDS011;13279;51.300;12.394;2024-03-02T04:21:29;40.53;;;18.87;;
25327;SDS011;13279;51.300;12.394;2024-03-02T04:23:56;44.03;;;19.73;;
25327;SDS011;13279;51.300;12.394;2024-03-02T04:26:24;44.77;;;18.70;;
25327;SDS011;13279;51.300;12.394;2024-03-02T04:28:52;42.53;;;18.17;;
25327;SDS011;13279;51.300;12.394;2024-03-02T04:31:20;39.73;;;19.23;;
25327;SDS011;13279;51.300;12.394;2024-03-02T04:33:47;38.90;;;18.03;;
25327;SDS011;13279;51.300;12.394;2024-03-02T04:36:14;39.47;;;18.47;;
25327;SDS011;13279;51.300;12.394;2024-03-02T04:38:43;56.60;;;20.83;;
25327;SDS011;13279;51.300;12.394;2024-03-02T04:41:11;44.30;;;19.13;;
25327;SDS011;13279;51.300;12.394;2024-03-02T04:43:38;42.47;;;19.37;;
25327;SDS011;13279;51.300;12.394;2024-03-02T04:46:05;46.13;;;19.20;;
25327;SDS011;13279;51.300;12.394;2024-03-02T04:48:33;37.40;;;19.07;;
25327;SDS011;13279;51.300;12.394;2024-03-02T04:51:01;42.10;;;19.57;;
25327;SDS011;13279;51.300;12.394;2024-03-02T04:53:28;40.60;;;18.93;;
25327;SDS011;13279;51.300;12.394;2024-03-02T04:55:57;37.27;;;17.03;;
25327;SDS011;13279;51.300;12.394;2024-03-02T04:58:46;37.10;;;17.80;;
25327;SDS011;13279;51.300;12.394;2024-03-02T05:01:13;41.53;;;19.30;;
25327;SDS011;13279;51.300;12.394;2024-03-02T05:03:42;41.30;;;18.27;;
25327;SDS011;13279;51.300;12.394;2024-03-02T05:06:10;38.13;;;16.80;;
25327;SDS011;13279;51.300;12.394;2024-03-02T05:08:38;42.93;;;18.43;;
25327;SDS011;13279;51.300;12.394;2024-03-02T05:11:07;38.57;;;17.03;;
25327;SDS011;13279;51.300;12.394;2024-03-02T05:13:52;35.57;;;17.63;;
25327;SDS011;13279;51.300;12.394;2024-03-02T05:16:19;37.87;;;16.93;;
25327;SDS011;13279;51.300;12.394;2024-03-02T05:18:47;35.10;;;16.70;;
25327;SDS011;13279;51.300;12.394;2024-03-02T05:21:14;43.13;;;17.90;;
25327;SDS011;13279;51.300;12.394;2024-03-02T05:23:41;35.80;;;17.33;;
25327;SDS011;13279;51.300;12.394;2024-03-02T05:26:10;34.27;;;17.47;;
25327;SDS011;13279;51.300;12.394;2024-03-02T05:28:39;40.27;;;17.53;;
25327;SDS011;13279;51.300;12.394;2024-03-02T05:31:06;51.43;;;19.13;;
25327;SDS011;13279;51.300;12.394;2024-03-02T05:33:37;38.13;;;17.67;;
25327;SDS011;13279;51.300;12.394;2024-03-02T05:36:04;41.83;;;18.23;;
25327;SDS011;13279;51.300;12.394;2024-03-02T05:38:32;36.80;;;17.10;;
25327;SDS011;13279;51.300;12.394;2024-03-02T05:41:01;38.23;;;17.17;;
25327;SDS011;13279;51.300;12.394;2024-03-02T05:43:30;44.47;;;18.90;;
25327;SDS011;13279;51.300;12.394;2024-03-02T05:45:57;36.67;;;17.23;;
25327;SDS011;13279;51.300;12.394;2024-03-02T05:48:25;38.63;;;17.27;;
25327;SDS011;13279;51.300;12.394;2024-03-02T05:50:52;42.77;;;19.33;;
25327;SDS011;13279;51.300;12.394;2024-03-02T05:53:20;45.30;;;17.30;;
25327;SDS011;13279;51.300;12.394;2024-03-02T05:55:47;40.30;;;17.10;;
25327;SDS011;13279;51.300;12.394;2024-03-02T05:58:19;46.37;;;18.37;;
25327;SDS011;13279;51.300;12.394;2024-03-02T06:00:59;37.40;;;17.80;;
25327;SDS011;13279;51.300;12.394;2024-03-02T06:03:27;40.23;;;19.23;;
25327;SDS011;13279;51.300;12.394;2024-03-02T06:05:54;43.23;;;17.70;;
25327;SDS011;13279;51.300;12.394;2024-03-02T06:08:21;41.03;;;19.60;;
25327;SDS011;13279;51.300;12.394;2024-03-02T06:10:49;37.97;;;18.73;;
25327;SDS011;13279;51.300;12.394;2024-03-02T06:13:16;42.63;;;19.23;;
25327;SDS011;13279;51.300;12.394;2024-03-02T06:15:44;46.17;;;20.10;;
25327;SDS011;13279;51.300;12.394;2024-03-02T06:18:13;45.07;;;19.13;;
25327;SDS011;13279;51.300;12.394;2024-03-02T06:20:40;46.53;;;18.60;;
25327;SDS011;13279;51.300;12.394;2024-03-02T06:23:08;46.80;;;19.10;;
25327;SDS011;13279;51.300;12.394;2024-03-02T06:25:35;48.93;;;19.43;;
25327;SDS011;13279;51.300;12.394;2024-03-02T06:28:03;39.23;;;18.40;;
25327;SDS011;13279;51.300;12.394;2024-03-02T06:30:31;47.37;;;19.10;;
25327;SDS011;13279;51.300;12.394;2024-03-02T06:32:58;41.13;;;19.40;;
25327;SDS011;13279;51.300;12.394;2024-03-02T06:35:27;47.13;;;19.60;;
25327;SDS011;13279;51.300;12.394;2024-03-02T06:37:55;32.93;;;17.93;;
25327;SDS011;13279;51.300;12.394;2024-03-02T06:40:22;41.23;;;19.17;;
25327;SDS011;13279;51.300;12.394;2024-03-02T06:42:49;48.83;;;18.57;;
25327;SDS011;13279;51.300;12.394;2024-03-02T06:45:17;42.83;;;18.47;;
25327;SDS011;13279;51.300;12.394;2024-03-02T06:47:44;46.17;;;20.43;;
25327;SDS011;13279;51.300;12.394;2024-03-02T06:50:12;45.37;;;19.07;;
25327;SDS011;13279;51.300;12.394;2024-03-02T06:52:41;40.67;;;19.10;;
25327;SDS011;13279;51.300;12.394;2024-03-02T06:55:08;42.67;;;18.70;;
25327;SDS011;13279;51.300;12.394;2024-03-02T06:57:36;50.20;;;20.67;;
25327;SDS011;13279;51.300;12.394;2024-03-02T07:00:04;42.97;;;18.03;;
25327;SDS011;13279;51.300;12.394;2024-03-02T07:02:34;43.87;;;19.33;;
25327;SDS011;13279;51.300;12.394;2024-03-02T07:05:03;38.87;;;17.60;;
25327;SDS011;13279;51.300;12.394;2024-03-02T07:07:32;42.00;;;18.77;;
25327;SDS011;13279;51.300;12.394;2024-03-02T07:10:01;40.70;;;17.90;;
25327;SDS011;13279;51.300;12.394;2024-03-02T07:12:29;44.47;;;18.87;;
25327;SDS011;13279;51.300;12.394;2024-03-02T07:14:56;42.77;;;20.07;;
25327;SDS011;13279;51.300;12.394;2024-03-02T07:17:44;37.97;;;17.70;;
25327;SDS011;13279;51.300;12.394;2024-03-02T07:20:11;39.20;;;18.37;;
25327;SDS011;13279;51.300;12.394;2024-03-02T07:22:39;44.13;;;18.80;;
25327;SDS011;13279;51.300;12.394;2024-03-02T07:25:07;39.27;;;18.40;;
25327;SDS011;13279;51.300;12.394;2024-03-02T07:27:35;40.63;;;18.20;;
25327;SDS011;13279;51.300;12.394;2024-03-02T07:30:02;40.13;;;18.57;;
25327;SDS011;13279;51.300;12.394;2024-03-02T07:32:30;39.90;;;18.80;;
25327;SDS011;13279;51.300;12.394;2024-03-02T07:34:57;41.07;;;18.80;;
25327;SDS011;13279;51.300;12.394;2024-03-02T07:37:25;42.60;;;17.90;;
25327;SDS011;13279;51.300;12.394;2024-03-02T07:39:52;35.60;;;18.43;;
25327;SDS011;13279;51.300;12.394;2024-03-02T07:42:21;45.63;;;18.27;;
25327;SDS011;13279;51.300;12.394;2024-03-02T07:44:48;41.00;;;18.90;;
25327;SDS011;13279;51.300;12.394;2024-03-02T07:47:16;40.93;;;17.33;;
25327;SDS011;13279;51.300;12.394;2024-03-02T07:49:44;37.07;;;18.00;;
25327;SDS011;13279;51.300;12.394;2024-03-02T07:52:11;44.50;;;19.23;;
25327;SDS011;13279;51.300;12.394;2024-03-02T07:54:39;39.07;;;18.10;;
25327;SDS011;13279;51.300;12.394;2024-03-02T07:57:06;41.63;;;19.67;;
25327;SDS011;13279;51.300;12.394;2024-03-02T07:59:35;38.70;;;16.93;;
25327;SDS011;13279;51.300;12.394;2024-03-02T08:02:03;39.70;;;17.80;;
25327;SDS011;13279;51.300;12.394;2024-03-02T08:04:30;34.93;;;17.93;;
25327;SDS011;13279;51.300;12.394;2024-03-02T08:06:58;36.50;;;18.43;;
25327;SDS011;13279;51.300;12.394;2024-03-02T08:09:25;38.30;;;16.70;;
25327;SDS011;13279;51.300;12.394;2024-03-02T08:11:53;36.17;;;17.30;;
25327;SDS011;13279;51.300;12.394;2024-03-02T08:14:21;36.70;;;18.60;;
25327;SDS011;13279;51.300;12.394;2024-03-02T08:16:50;40.47;;;18.27;;
25327;SDS011;13279;51.300;12.394;2024-03-02T08:19:18;39.53;;;18.83;;
25327;SDS011;13279;51.300;12.394;2024-03-02T08:21:45;38.80;;;17.27;;
25327;SDS011;13279;51.300;12.394;2024-03-02T08:24:12;37.87;;;17.40;;
25327;SDS011;13279;51.300;12.394;2024-03-02T08:26:40;42.93;;;17.10;;
25327;SDS011;13279;51.300;12.394;2024-03-02T08:29:07;44.40;;;18.60;;
25327;SDS011;13279;51.300;12.394;2024-03-02T08:31:35;36.60;;;18.23;;
25327;SDS011;13279;51.300;12.394;2024-03-02T08:34:04;37.80;;;19.00;;
25327;SDS011;13279;51.300;12.394;2024-03-02T08:36:31;35.83;;;16.87;;
25327;SDS011;13279;51.300;12.394;2024-03-02T08:38:58;34.93;;;17.03;;
25327;SDS011;13279;51.300;12.394;2024-03-02T08:41:26;35.97;;;18.50;;
25327;SDS011;13279;51.300;12.394;2024-03-02T08:43:53;37.90;;;17.90;;
25327;SDS011;13279;51.300;12.394;2024-03-02T08:46:21;44.37;;;17.97;;
25327;SDS011;13279;51.300;12.394;2024-03-02T08:48:48;37.73;;;18.13;;
25327;SDS011;13279;51.300;12.394;2024-03-02T08:51:17;37.23;;;19.00;;
25327;SDS011;13279;51.300;12.394;2024-03-02T08:53:44;39.17;;;19.17;;
25327;SDS011;13279;51.300;12.394;2024-03-02T08:56:11;42.00;;;19.60;;
25327;SDS011;13279;51.300;12.394;2024-03-02T08:58:41;41.30;;;19.37;;
25327;SDS011;13279;51.300;12.394;2024-03-02T09:01:09;38.73;;;18.50;;
25327;SDS011;13279;51.300;12.394;2024-03-02T09:03:37;34.57;;;18.60;;
25327;SDS011;13279;51.300;12.394;2024-03-02T09:06:05;35.93;;;17.50;;
25327;SDS011;13279;51.300;12.394;2024-03-02T09:08:33;39.40;;;18.30;;
25327;SDS011;13279;51.300;12.394;2024-03-02T09:11:02;38.27;;;17.73;;
25327;SDS011;13279;51.300;12.394;2024-03-02T09:13:29;41.03;;;18.63;;
25327;SDS011;13279;51.300;12.394;2024-03-02T09:15:57;35.93;;;16.90;;
25327;SDS011;13279;51.300;12.394;2024-03-02T09:18:25;35.27;;;17.70;;
25327;SDS011;13279;51.300;12.394;2024-03-02T09:20:52;41.23;;;18.93;;
25327;SDS011;13279;51.300;12.394;2024-03-02T09:23:20;36.03;;;16.67;;
25327;SDS011;13279;51.300;12.394;2024-03-02T09:25:49;39.67;;;18.70;;
25327;SDS011;13279;51.300;12.394;2024-03-02T09:28:16;36.20;;;17.87;;
25327;SDS011;13279;51.300;12.394;2024-03-02T09:30:44;37.80;;;16.63;;
25327;SDS011;13279;51.300;12.394;2024-03-02T09:33:11;36.50;;;17.80;;
25327;SDS011;13279;51.300;12.394;2024-03-02T09:35:39;31.13;;;15.73;;
25327;SDS011;13279;51.300;12.394;2024-03-02T09:38:06;34.57;;;16.13;;
25327;SDS011;13279;51.300;12.394;2024-03-02T09:40:33;34.37;;;17.03;;
25327;SDS011;13279;51.300;12.394;2024-03-02T09:43:02;33.77;;;16.33;;
25327;SDS011;13279;51.300;12.394;2024-03-02T09:45:30;31.60;;;15.67;;
25327;SDS011;13279;51.300;12.394;2024-03-02T09:47:57;32.60;;;15.30;;
25327;SDS011;13279;51.300;12.394;2024-03-02T09:50:26;32.63;;;15.67;;
25327;SDS011;13279;51.300;12.394;2024-03-02T09:52:53;28.03;;;15.40;;
25327;SDS011;13279;51.300;12.394;2024-03-02T09:55:21;32.53;;;16.10;;
25327;SDS011;13279;51.300;12.394;2024-03-02T09:57:48;29.67;;;15.40;;
25327;SDS011;13279;51.300;12.394;2024-03-02T10:00:18;33.17;;;14.73;;
25327;SDS011;13279;51.300;12.394;2024-03-02T10:02:45;26.23;;;13.67;;
25327;SDS011;13279;51.300;12.394;2024-03-02T10:05:23;31.03;;;14.60;;
25327;SDS011;13279;51.300;12.394;2024-03-02T10:07:58;30.43;;;14.63;;
25327;SDS011;13279;51.300;12.394;2024-03-02T10:10:34;27.63;;;14.57;;
25327;SDS011;13279;51.300;12.394;2024-03-02T10:13:05;27.43;;;14.40;;
25327;SDS011;13279;51.300;12.394;2024-03-02T10:15:35;30.43;;;13.87;;
25327;SDS011;13279;51.300;12.394;2024-03-02T10:18:07;31.03;;;17.70;;
25327;SDS011;13279;51.300;12.394;2024-03-02T10:20:36;30.37;;;17.30;;
25327;SDS011;13279;51.300;12.394;2024-03-02T10:23:11;29.87;;;16.07;;
25327;SDS011;13279;51.300;12.394;2024-03-02T10:25:39;21.07;;;12.83;;
25327;SDS011;13279;51.300;12.394;2024-03-02T10:28:06;25.70;;;13.30;;
25327;SDS011;13279;51.300;12.394;2024-03-02T10:30:37;26.03;;;12.50;;
25327;SDS011;13279;51.300;12.394;2024-03-02T10:33:05;20.77;;;11.17;;
25327;SDS011;13279;51.300;12.394;2024-03-02T10:35:32;23.90;;;11.67;;
25327;SDS011;13279;51.300;12.394;2024-03-02T10:38:03;19.77;;;11.30;;
25327;SDS011;13279;51.300;12.394;2024-03-02T10:40:32;18.17;;;10.27;;
25327;SDS011;13279;51.300;12.394;2024-03-02T10:43:00;16.57;;;9.73;;
25327;SDS011;13279;51.300;12.394;2024-03-02T10:45:31;17.07;;;9.77;;
25327;SDS011;13279;51.300;12.394;2024-03-02T10:48:00;18.90;;;10.40;;
25327;SDS011;13279;51.300;12.394;2024-03-02T10:50:31;17.53;;;9.60;;
25327;SDS011;13279;51.300;12.394;2024-03-02T10:52:58;21.07;;;10.13;;
25327;SDS011;13279;51.300;12.394;2024-03-02T10:55:26;16.03;;;9.43;;
25327;SDS011;13279;51.300;12.394;2024-03-02T10:57:54;18.63;;;9.63;;
25327;SDS011;13279;51.300;12.394;2024-03-02T11:00:23;17.73;;;9.63;;
25327;SDS011;13279;51.300;12.394;2024-03-02T11:02:56;15.03;;;8.67;;
25327;SDS011;13279;51.300;12.394;2024-03-02T11:05:28;17.57;;;8.97;;
25327;SDS011;13279;51.300;12.394;2024-03-02T11:08:00;16.67;;;9.00;;
25327;SDS011;13279;51.300;12.394;2024-03-02T11:10:32;14.73;;;9.43;;
25327;SDS011;13279;51.300;12.394;2024-03-02T11:13:05;19.20;;;10.43;;
25327;SDS011;13279;51.300;12.394;2024-03-02T11:15:35;18.27;;;10.43;;
25327;SDS011;13279;51.300;12.394;2024-03-02T11:18:04;16.50;;;9.03;;
25327;SDS011;13279;51.300;12.394;2024-03-02T11:20:38;16.83;;;10.33;;
25327;SDS011;13279;51.300;12.394;2024-03-02T11:23:08;17.97;;;9.40;;
25327;SDS011;13279;51.300;12.394;2024-03-02T11:25:36;16.43;;;9.27;;
25327;SDS011;13279;51.300;12.394;2024-03-02T11:28:05;15.70;;;9.20;;
25327;SDS011;13279;51.300;12.394;2024-03-02T11:30:48;18.50;;;9.23;;
25327;SDS011;13279;51.300;12.394;2024-03-02T11:33:26;13.97;;;8.33;;
25327;SDS011;13279;51.300;12.394;2024-03-02T11:35:57;13.57;;;7.83;;
25327;SDS011;13279;51.300;12.394;2024-03-02T11:38:29;15.20;;;8.83;;
25327;SDS011;13279;51.300;12.394;2024-03-02T11:40:59;17.50;;;8.77;;
25327;SDS011;13279;51.300;12.394;2024-03-02T11:43:28;14.37;;;8.70;;
25327;SDS011;13279;51.300;12.394;2024-03-02T11:45:59;21.13;;;8.50;;
25327;SDS011;13279;51.300;12.394;2024-03-02T11:48:29;10.73;;;6.90;;
25327;SDS011;13279;51.300;12.394;2024-03-02T11:50:59;12.10;;;7.33;;
25327;SDS011;13279;51.300;12.394;2024-03-02T11:53:28;15.03;;;7.63;;
25327;SDS011;13279;51.300;12.394;2024-03-02T11:55:57;15.40;;;7.37;;
25327;SDS011;13279;51.300;12.394;2024-03-02T11:58:27;14.57;;;8.03;;
25327;SDS011;13279;51.300;12.394;2024-03-02T12:00:54;11.70;;;7.60;;
25327;SDS011;13279;51.300;12.394;2024-03-02T12:03:23;15.03;;;7.67;;
25327;SDS011;13279;51.300;12.394;2024-03-02T12:05:52;13.97;;;6.93;;
25327;SDS011;13279;51.300;12.394;2024-03-02T12:08:21;11.20;;;6.23;;
25327;SDS011;13279;51.300;12.394;2024-03-02T12:10:56;10.47;;;6.07;;
25327;SDS011;13279;51.300;12.394;2024-03-02T12:13:27;10.27;;;6.27;;
25327;SDS011;13279;51.300;12.394;2024-03-02T12:15:55;11.30;;;6.60;;
25327;SDS011;13279;51.300;12.394;2024-03-02T12:18:23;9.63;;;6.47;;
25327;SDS011;13279;51.300;12.394;2024-03-02T12:20:51;14.67;;;7.00;;
25327;SDS011;13279;51.300;12.394;2024-03-02T12:23:24;14.10;;;8.47;;
25327;SDS011;13279;51.300;12.394;2024-03-02T12:25:53;17.70;;;8.03;;
25327;SDS011;13279;51.300;12.394;2024-03-02T12:28:22;15.10;;;7.67;;
25327;SDS011;13279;51.300;12.394;2024-03-02T12:30:50;11.97;;;7.63;;
25327;SDS011;13279;51.300;12.394;2024-03-02T12:33:17;13.73;;;8.17;;
25327;SDS011;13279;51.300;12.394;2024-03-02T12:35:45;10.57;;;6.33;;
25327;SDS011;13279;51.300;12.394;2024-03-02T12:38:12;12.80;;;7.50;;
25327;SDS011;13279;51.300;12.394;2024-03-02T12:40:42;13.93;;;7.90;;
25327;SDS011;13279;51.300;12.394;2024-03-02T12:43:10;14.13;;;8.00;;
25327;SDS011;13279;51.300;12.394;2024-03-02T12:45:37;13.13;;;7.87;;
25327;SDS011;13279;51.300;12.394;2024-03-02T12:48:05;11.40;;;7.47;;
25327;SDS011;13279;51.300;12.394;2024-03-02T12:50:33;14.57;;;7.10;;
25327;SDS011;13279;51.300;12.394;2024-03-02T12:53:00;11.00;;;6.33;;
25327;SDS011;13279;51.300;12.394;2024-03-02T12:55:28;12.93;;;6.67;;
25327;SDS011;13279;51.300;12.394;2024-03-02T12:57:58;9.60;;;6.37;;
25327;SDS011;13279;51.300;12.394;2024-03-02T13:00:26;15.23;;;6.80;;
25327;SDS011;13279;51.300;12.394;2024-03-02T13:02:56;9.80;;;6.00;;
25327;SDS011;13279;51.300;12.394;2024-03-02T13:05:29;10.80;;;6.30;;
25327;SDS011;13279;51.300;12.394;2024-03-02T13:07:57;11.13;;;6.30;;
25327;SDS011;13279;51.300;12.394;2024-03-02T13:10:26;11.87;;;7.23;;
25327;SDS011;13279;51.300;12.394;2024-03-02T13:12:54;9.70;;;6.43;;
25327;SDS011;13279;51.300;12.394;2024-03-02T13:15:25;8.43;;;5.90;;
25327;SDS011;13279;51.300;12.394;2024-03-02T13:17:53;8.67;;;6.20;;
25327;SDS011;13279;51.300;12.394;2024-03-02T13:20:20;12.80;;;6.37;;
25327;SDS011;13279;51.300;12.394;2024-03-02T13:22:47;9.47;;;6.60;;
25327;SDS011;13279;51.300;12.394;2024-03-02T13:25:15;12.67;;;7.30;;
25327;SDS011;13279;51.300;12.394;2024-03-02T13:27:42;10.47;;;7.00;;
25327;SDS011;13279;51.300;12.394;2024-03-02T13:30:11;9.00;;;6.13;;
25327;SDS011;13279;51.300;12.394;2024-03-02T13:32:39;7.57;;;5.47;;
25327;SDS011;13279;51.300;12.394;2024-03-02T13:35:06;12.87;;;6.30;;
25327;SDS011;13279;51.300;12.394;2024-03-02T13:37:36;10.80;;;5.40;;
25327;SDS011;13279;51.300;12.394;2024-03-02T13:40:04;10.03;;;6.13;;
25327;SDS011;13279;51.300;12.394;2024-03-02T13:42:38;10.10;;;6.60;;
25327;SDS011;13279;51.300;12.394;2024-03-02T13:45:06;9.70;;;6.13;;
25327;SDS011;13279;51.300;12.394;2024-03-02T13:47:36;11.73;;;6.13;;
25327;SDS011;13279;51.300;12.394;2024-03-02T13:50:03;11.20;;;6.27;;
25327;SDS011;13279;51.300;12.394;2024-03-02T13:52:33;10.77;;;6.07;;
25327;SDS011;13279;51.300;12.394;2024-03-02T13:55:00;9.57;;;5.40;;
25327;SDS011;13279;51.300;12.394;2024-03-02T13:57:27;9.67;;;5.13;;
25327;SDS011;13279;51.300;12.394;2024-03-02T13:59:55;10.30;;;5.90;;
25327;SDS011;13279;51.300;12.394;2024-03-02T14:02:22;7.43;;;5.40;;
25327;SDS011;13279;51.300;12.394;2024-03-02T14:04:52;7.33;;;4.80;;
25327;SDS011;13279;51.300;12.394;2024-03-02T14:07:20;7.57;;;4.97;;
25327;SDS011;13279;51.300;12.394;2024-03-02T14:09:47;7.17;;;5.07;;
25327;SDS011;13279;51.300;12.394;2024-03-02T14:12:15;6.27;;;4.37;;
25327;SDS011;13279;51.300;12.394;2024-03-02T14:14:42;6.37;;;4.43;;
25327;SDS011;13279;51.300;12.394;2024-03-02T14:17:10;6.07;;;4.70;;
25327;SDS011;13279;51.300;12.394;2024-03-02T14:19:40;6.57;;;4.87;;
25327;SDS011;13279;51.300;12.394;2024-03-02T14:22:09;6.37;;;4.07;;